sensor_id;sensor_type;location;lat;lon;timestamp;P1;durP1;ratioP1;P2;durP2;ratioP2
34926;SDS011;21132;48.308;14.274;2023-03-14T00:01:13;5.68;;;3.00;;
34926;SDS011;21132;48.308;14.274;2023-03-14T00:03:41;5.45;;;3.13;;
34926;SDS011;21132;48.308;14.274;2023-03-14T00:06:11;5.68;;;2.83;;
34926;SDS011;21132;48.308;14.274;2023-03-14T00:08:38;4.93;;;3.10;;
34926;SDS011;21132;48.308;14.274;2023-03-14T00:11:08;8.50;;;3.03;;
34926;SDS011;21132;48.308;14.274;2023-03-14T00:13:43;6.20;;;3.10;;
34926;SDS011;21132;48.308;14.274;2023-03-14T00:16:12;6.40;;;3.17;;
34926;SDS011;21132;48.308;14.274;2023-03-14T00:18:39;8.15;;;3.25;;
34926;SDS011;21132;48.308;14.274;2023-03-14T00:21:07;6.05;;;2.95;;
34926;SDS011;21132;48.308;14.274;2023-03-14T00:23:35;11.70;;;4.13;;
34926;SDS011;21132;48.308;14.274;2023-03-14T00:26:03;8.23;;;3.20;;
34926;SDS011;21132;48.308;14.274;2023-03-14T00:28:35;5.43;;;2.75;;
34926;SDS011;21132;48.308;14.274;2023-03-14T00:31:04;5.80;;;3.00;;
34926;SDS011;21132;48.308;14.274;2023-03-14T00:33:31;4.28;;;2.60;;
34926;SDS011;21132;48.308;14.274;2023-03-14T00:35:58;6.68;;;2.53;;
34926;SDS011;21132;48.308;14.274;2023-03-14T00:38:26;7.38;;;2.65;;
34926;SDS011;21132;48.308;14.274;2023-03-14T00:40:52;4.90;;;2.55;;
34926;SDS011;21132;48.308;14.274;2023-03-14T00:43:18;5.07;;;2.50;;
34926;SDS011;21132;48.308;14.274;2023-03-14T00:45:48;6.10;;;2.80;;
34926;SDS011;21132;48.308;14.274;2023-03-14T00:48:16;7.63;;;2.50;;
34926;SDS011;21132;48.308;14.274;2023-03-14T00:50:42;7.03;;;2.42;;
34926;SDS011;21132;48.308;14.274;2023-03-14T00:53:08;6.40;;;2.35;;
34926;SDS011;21132;48.308;14.274;2023-03-14T00:55:37;5.63;;;2.53;;
34926;SDS011;21132;48.308;14.274;2023-03-14T00:58:04;4.00;;;2.22;;
34926;SDS011;21132;48.308;14.274;2023-03-14T01:00:30;6.50;;;2.28;;
34926;SDS011;21132;48.308;14.274;2023-03-14T01:02:56;10.52;;;4.60;;
34926;SDS011;21132;48.308;14.274;2023-03-14T01:05:22;5.53;;;2.58;;
34926;SDS011;21132;48.308;14.274;2023-03-14T01:07:48;10.20;;;2.60;;
34926;SDS011;21132;48.308;14.274;2023-03-14T01:10:14;6.72;;;2.83;;
34926;SDS011;21132;48.308;14.274;2023-03-14T01:12:40;5.75;;;3.33;;
34926;SDS011;21132;48.308;14.274;2023-03-14T01:15:06;4.00;;;2.67;;
34926;SDS011;21132;48.308;14.274;2023-03-14T01:17:32;6.43;;;3.10;;
34926;SDS011;21132;48.308;14.274;2023-03-14T01:19:59;9.52;;;2.83;;
34926;SDS011;21132;48.308;14.274;2023-03-14T01:22:25;5.72;;;2.63;;
34926;SDS011;21132;48.308;14.274;2023-03-14T01:24:51;6.60;;;3.25;;
34926;SDS011;21132;48.308;14.274;2023-03-14T01:27:17;8.32;;;3.35;;
34926;SDS011;21132;48.308;14.274;2023-03-14T01:29:43;8.80;;;2.92;;
34926;SDS011;21132;48.308;14.274;2023-03-14T01:32:09;4.80;;;2.83;;
34926;SDS011;21132;48.308;14.274;2023-03-14T01:34:34;6.00;;;3.20;;
34926;SDS011;21132;48.308;14.274;2023-03-14T01:37:00;7.28;;;3.03;;
34926;SDS011;21132;48.308;14.274;2023-03-14T01:39:26;3.38;;;2.33;;
34926;SDS011;21132;48.308;14.274;2023-03-14T01:41:53;9.15;;;2.63;;
34926;SDS011;21132;48.308;14.274;2023-03-14T01:44:19;4.28;;;2.35;;
34926;SDS011;21132;48.308;14.274;2023-03-14T01:46:45;3.55;;;2.30;;
34926;SDS011;21132;48.308;14.274;2023-03-14T01:49:30;5.95;;;2.63;;
34926;SDS011;21132;48.308;14.274;2023-03-14T01:52:19;8.20;;;2.53;;
34926;SDS011;21132;48.308;14.274;2023-03-14T01:54:51;6.03;;;3.17;;
34926;SDS011;21132;48.308;14.274;2023-03-14T01:57:25;11.27;;;3.90;;
34926;SDS011;21132;48.308;14.274;2023-03-14T02:00:16;7.90;;;4.07;;
34926;SDS011;21132;48.308;14.274;2023-03-14T02:02:48;7.50;;;3.00;;
34926;SDS011;21132;48.308;14.274;2023-03-14T02:05:24;4.22;;;2.95;;
34926;SDS011;21132;48.308;14.274;2023-03-14T02:07:54;6.35;;;2.95;;
34926;SDS011;21132;48.308;14.274;2023-03-14T02:10:22;6.45;;;3.22;;
34926;SDS011;21132;48.308;14.274;2023-03-14T02:12:52;8.75;;;2.90;;
34926;SDS011;21132;48.308;14.274;2023-03-14T02:15:20;4.85;;;2.83;;
34926;SDS011;21132;48.308;14.274;2023-03-14T02:17:46;5.78;;;3.45;;
34926;SDS011;21132;48.308;14.274;2023-03-14T02:20:19;5.60;;;3.60;;
34926;SDS011;21132;48.308;14.274;2023-03-14T02:22:47;5.00;;;2.90;;
34926;SDS011;21132;48.308;14.274;2023-03-14T02:27:56;6.15;;;3.15;;
34926;SDS011;21132;48.308;14.274;2023-03-14T02:30:24;3.95;;;2.40;;
34926;SDS011;21132;48.308;14.274;2023-03-14T02:32:56;6.00;;;2.92;;
34926;SDS011;21132;48.308;14.274;2023-03-14T02:35:26;8.40;;;3.22;;
34926;SDS011;21132;48.308;14.274;2023-03-14T02:40:30;6.03;;;3.22;;
34926;SDS011;21132;48.308;14.274;2023-03-14T02:42:56;4.85;;;2.92;;
34926;SDS011;21132;48.308;14.274;2023-03-14T02:47:54;7.28;;;3.40;;
34926;SDS011;21132;48.308;14.274;2023-03-14T02:50:26;8.60;;;3.33;;
34926;SDS011;21132;48.308;14.274;2023-03-14T02:52:54;6.30;;;3.58;;
34926;SDS011;21132;48.308;14.274;2023-03-14T02:55:20;6.07;;;3.67;;
34926;SDS011;21132;48.308;14.274;2023-03-14T02:57:47;8.40;;;2.83;;
34926;SDS011;21132;48.308;14.274;2023-03-14T03:00:13;5.75;;;3.28;;
34926;SDS011;21132;48.308;14.274;2023-03-14T03:02:39;7.15;;;3.33;;
34926;SDS011;21132;48.308;14.274;2023-03-14T03:05:06;5.95;;;3.22;;
34926;SDS011;21132;48.308;14.274;2023-03-14T03:07:32;10.75;;;3.03;;
34926;SDS011;21132;48.308;14.274;2023-03-14T03:09:58;5.55;;;2.88;;
34926;SDS011;21132;48.308;14.274;2023-03-14T03:12:23;6.95;;;2.85;;
34926;SDS011;21132;48.308;14.274;2023-03-14T03:14:49;4.93;;;2.63;;
34926;SDS011;21132;48.308;14.274;2023-03-14T03:17:15;5.18;;;2.80;;
34926;SDS011;21132;48.308;14.274;2023-03-14T03:19:41;4.93;;;2.60;;
34926;SDS011;21132;48.308;14.274;2023-03-14T03:22:07;4.47;;;2.80;;
34926;SDS011;21132;48.308;14.274;2023-03-14T03:24:33;6.10;;;3.38;;
34926;SDS011;21132;48.308;14.274;2023-03-14T03:26:59;6.72;;;2.92;;
34926;SDS011;21132;48.308;14.274;2023-03-14T03:29:24;4.38;;;2.83;;
34926;SDS011;21132;48.308;14.274;2023-03-14T03:31:50;8.45;;;3.53;;
34926;SDS011;21132;48.308;14.274;2023-03-14T03:34:16;7.25;;;3.22;;
34926;SDS011;21132;48.308;14.274;2023-03-14T03:36:42;6.15;;;2.90;;
34926;SDS011;21132;48.308;14.274;2023-03-14T03:39:08;7.35;;;2.80;;
34926;SDS011;21132;48.308;14.274;2023-03-14T03:41:34;4.78;;;2.80;;
34926;SDS011;21132;48.308;14.274;2023-03-14T03:44:00;6.00;;;3.20;;
34926;SDS011;21132;48.308;14.274;2023-03-14T03:46:26;5.72;;;2.85;;
34926;SDS011;21132;48.308;14.274;2023-03-14T03:48:55;4.55;;;2.80;;
34926;SDS011;21132;48.308;14.274;2023-03-14T03:51:22;4.55;;;2.65;;
34926;SDS011;21132;48.308;14.274;2023-03-14T03:53:48;4.72;;;2.80;;
34926;SDS011;21132;48.308;14.274;2023-03-14T03:56:13;3.88;;;2.60;;
34926;SDS011;21132;48.308;14.274;2023-03-14T03:58:39;7.60;;;3.08;;
34926;SDS011;21132;48.308;14.274;2023-03-14T04:01:07;9.10;;;3.13;;
34926;SDS011;21132;48.308;14.274;2023-03-14T04:03:33;4.57;;;2.88;;
34926;SDS011;21132;48.308;14.274;2023-03-14T04:06:00;6.40;;;3.08;;
34926;SDS011;21132;48.308;14.274;2023-03-14T04:08:27;9.60;;;3.55;;
34926;SDS011;21132;48.308;14.274;2023-03-14T04:10:57;6.43;;;3.17;;
34926;SDS011;21132;48.308;14.274;2023-03-14T04:13:24;6.07;;;3.10;;
34926;SDS011;21132;48.308;14.274;2023-03-14T04:15:50;5.90;;;3.05;;
34926;SDS011;21132;48.308;14.274;2023-03-14T04:18:16;8.90;;;3.08;;
34926;SDS011;21132;48.308;14.274;2023-03-14T04:20:42;5.82;;;3.00;;
34926;SDS011;21132;48.308;14.274;2023-03-14T04:23:08;11.35;;;3.33;;
34926;SDS011;21132;48.308;14.274;2023-03-14T04:25:34;13.52;;;2.60;;
34926;SDS011;21132;48.308;14.274;2023-03-14T04:28:00;9.15;;;3.17;;
34926;SDS011;21132;48.308;14.274;2023-03-14T04:30:28;4.93;;;2.67;;
34926;SDS011;21132;48.308;14.274;2023-03-14T04:32:54;4.90;;;2.92;;
34926;SDS011;21132;48.308;14.274;2023-03-14T04:35:19;10.27;;;3.83;;
34926;SDS011;21132;48.308;14.274;2023-03-14T04:37:45;5.90;;;3.05;;
34926;SDS011;21132;48.308;14.274;2023-03-14T04:40:14;8.05;;;3.20;;
34926;SDS011;21132;48.308;14.274;2023-03-14T04:42:40;5.07;;;3.30;;
34926;SDS011;21132;48.308;14.274;2023-03-14T04:45:06;4.15;;;2.60;;
34926;SDS011;21132;48.308;14.274;2023-03-14T04:47:33;6.68;;;2.90;;
34926;SDS011;21132;48.308;14.274;2023-03-14T04:49:59;3.72;;;2.55;;
34926;SDS011;21132;48.308;14.274;2023-03-14T04:52:25;7.38;;;2.80;;
34926;SDS011;21132;48.308;14.274;2023-03-14T04:54:55;4.88;;;2.67;;
34926;SDS011;21132;48.308;14.274;2023-03-14T04:57:20;4.57;;;2.78;;
34926;SDS011;21132;48.308;14.274;2023-03-14T04:59:46;8.18;;;3.08;;
34926;SDS011;21132;48.308;14.274;2023-03-14T05:02:12;5.13;;;3.00;;
34926;SDS011;21132;48.308;14.274;2023-03-14T05:04:37;7.53;;;3.35;;
34926;SDS011;21132;48.308;14.274;2023-03-14T05:07:03;9.40;;;3.33;;
34926;SDS011;21132;48.308;14.274;2023-03-14T05:09:29;8.43;;;3.83;;
34926;SDS011;21132;48.308;14.274;2023-03-14T05:11:55;7.78;;;3.83;;
34926;SDS011;21132;48.308;14.274;2023-03-14T05:14:21;5.82;;;2.85;;
34926;SDS011;21132;48.308;14.274;2023-03-14T05:16:46;5.90;;;2.80;;
34926;SDS011;21132;48.308;14.274;2023-03-14T05:19:12;7.57;;;3.75;;
34926;SDS011;21132;48.308;14.274;2023-03-14T05:21:38;7.20;;;2.63;;
34926;SDS011;21132;48.308;14.274;2023-03-14T05:24:04;10.35;;;3.42;;
34926;SDS011;21132;48.308;14.274;2023-03-14T05:26:30;6.55;;;3.10;;
34926;SDS011;21132;48.308;14.274;2023-03-14T05:28:55;6.60;;;3.53;;
34926;SDS011;21132;48.308;14.274;2023-03-14T05:31:21;9.88;;;4.80;;
34926;SDS011;21132;48.308;14.274;2023-03-14T05:33:47;14.10;;;5.63;;
34926;SDS011;21132;48.308;14.274;2023-03-14T05:36:13;9.07;;;4.40;;
34926;SDS011;21132;48.308;14.274;2023-03-14T05:38:39;8.63;;;5.00;;
34926;SDS011;21132;48.308;14.274;2023-03-14T05:41:04;9.55;;;4.60;;
34926;SDS011;21132;48.308;14.274;2023-03-14T05:43:30;12.05;;;4.03;;
34926;SDS011;21132;48.308;14.274;2023-03-14T05:45:56;10.75;;;4.93;;
34926;SDS011;21132;48.308;14.274;2023-03-14T05:48:22;7.78;;;4.55;;
34926;SDS011;21132;48.308;14.274;2023-03-14T05:50:53;9.88;;;4.57;;
34926;SDS011;21132;48.308;14.274;2023-03-14T05:53:20;7.97;;;4.40;;
34926;SDS011;21132;48.308;14.274;2023-03-14T05:55:46;21.90;;;12.10;;
34926;SDS011;21132;48.308;14.274;2023-03-14T05:58:11;20.40;;;12.23;;
34926;SDS011;21132;48.308;14.274;2023-03-14T06:00:37;16.75;;;8.40;;
34926;SDS011;21132;48.308;14.274;2023-03-14T06:03:03;13.63;;;6.45;;
34926;SDS011;21132;48.308;14.274;2023-03-14T06:05:29;8.88;;;5.85;;
34926;SDS011;21132;48.308;14.274;2023-03-14T06:07:54;11.50;;;7.60;;
34926;SDS011;21132;48.308;14.274;2023-03-14T06:10:20;9.73;;;5.10;;
34926;SDS011;21132;48.308;14.274;2023-03-14T06:12:46;8.18;;;4.22;;
34926;SDS011;21132;48.308;14.274;2023-03-14T06:15:12;16.90;;;4.05;;
34926;SDS011;21132;48.308;14.274;2023-03-14T06:17:38;8.95;;;3.90;;
34926;SDS011;21132;48.308;14.274;2023-03-14T06:20:04;6.07;;;3.35;;
34926;SDS011;21132;48.308;14.274;2023-03-14T06:22:30;9.00;;;4.03;;
34926;SDS011;21132;48.308;14.274;2023-03-14T06:24:55;14.90;;;5.72;;
34926;SDS011;21132;48.308;14.274;2023-03-14T06:27:21;8.00;;;4.72;;
34926;SDS011;21132;48.308;14.274;2023-03-14T06:29:47;7.85;;;4.60;;
34926;SDS011;21132;48.308;14.274;2023-03-14T06:32:12;7.57;;;4.00;;
34926;SDS011;21132;48.308;14.274;2023-03-14T06:34:38;6.82;;;3.75;;
34926;SDS011;21132;48.308;14.274;2023-03-14T06:37:05;7.05;;;4.38;;
34926;SDS011;21132;48.308;14.274;2023-03-14T06:39:32;6.82;;;4.03;;
34926;SDS011;21132;48.308;14.274;2023-03-14T06:41:58;8.88;;;3.92;;
34926;SDS011;21132;48.308;14.274;2023-03-14T06:44:24;5.78;;;3.60;;
34926;SDS011;21132;48.308;14.274;2023-03-14T06:46:50;8.65;;;4.00;;
34926;SDS011;21132;48.308;14.274;2023-03-14T06:49:16;7.72;;;3.35;;
34926;SDS011;21132;48.308;14.274;2023-03-14T06:51:41;8.07;;;4.13;;
34926;SDS011;21132;48.308;14.274;2023-03-14T06:54:07;10.00;;;4.00;;
34926;SDS011;21132;48.308;14.274;2023-03-14T06:56:33;10.95;;;4.60;;
34926;SDS011;21132;48.308;14.274;2023-03-14T06:58:59;9.23;;;4.93;;
34926;SDS011;21132;48.308;14.274;2023-03-14T07:01:25;9.20;;;4.70;;
34926;SDS011;21132;48.308;14.274;2023-03-14T07:03:52;7.53;;;5.07;;
34926;SDS011;21132;48.308;14.274;2023-03-14T07:06:19;12.40;;;5.07;;
34926;SDS011;21132;48.308;14.274;2023-03-14T07:08:45;11.55;;;4.88;;
34926;SDS011;21132;48.308;14.274;2023-03-14T07:11:11;8.40;;;4.57;;
34926;SDS011;21132;48.308;14.274;2023-03-14T07:13:40;6.40;;;4.03;;
34926;SDS011;21132;48.308;14.274;2023-03-14T07:16:06;5.30;;;3.53;;
34926;SDS011;21132;48.308;14.274;2023-03-14T07:18:33;14.00;;;4.55;;
34926;SDS011;21132;48.308;14.274;2023-03-14T07:20:59;10.43;;;4.55;;
34926;SDS011;21132;48.308;14.274;2023-03-14T07:23:25;7.65;;;4.40;;
34926;SDS011;21132;48.308;14.274;2023-03-14T07:25:50;9.98;;;4.35;;
34926;SDS011;21132;48.308;14.274;2023-03-14T07:28:18;11.00;;;5.30;;
34926;SDS011;21132;48.308;14.274;2023-03-14T07:30:46;13.55;;;5.18;;
34926;SDS011;21132;48.308;14.274;2023-03-14T07:33:12;9.50;;;5.32;;
34926;SDS011;21132;48.308;14.274;2023-03-14T07:35:38;11.30;;;4.75;;
34926;SDS011;21132;48.308;14.274;2023-03-14T07:38:04;9.50;;;4.78;;
34926;SDS011;21132;48.308;14.274;2023-03-14T07:40:30;5.60;;;3.95;;
34926;SDS011;21132;48.308;14.274;2023-03-14T07:42:55;7.97;;;4.40;;
34926;SDS011;21132;48.308;14.274;2023-03-14T07:45:22;7.85;;;4.45;;
34926;SDS011;21132;48.308;14.274;2023-03-14T07:47:48;11.90;;;4.90;;
34926;SDS011;21132;48.308;14.274;2023-03-14T07:50:13;8.63;;;4.55;;
34926;SDS011;21132;48.308;14.274;2023-03-14T07:52:39;11.13;;;4.85;;
34926;SDS011;21132;48.308;14.274;2023-03-14T07:55:05;7.25;;;3.80;;
34926;SDS011;21132;48.308;14.274;2023-03-14T07:57:31;8.00;;;3.45;;
34926;SDS011;21132;48.308;14.274;2023-03-14T07:59:59;7.78;;;4.20;;
34926;SDS011;21132;48.308;14.274;2023-03-14T08:02:24;8.38;;;4.60;;
34926;SDS011;21132;48.308;14.274;2023-03-14T08:04:51;8.57;;;4.40;;
34926;SDS011;21132;48.308;14.274;2023-03-14T08:07:16;6.70;;;3.63;;
34926;SDS011;21132;48.308;14.274;2023-03-14T08:09:43;6.90;;;2.83;;
34926;SDS011;21132;48.308;14.274;2023-03-14T08:12:09;8.50;;;3.83;;
34926;SDS011;21132;48.308;14.274;2023-03-14T08:14:34;9.27;;;3.30;;
34926;SDS011;21132;48.308;14.274;2023-03-14T08:17:00;5.95;;;2.50;;
34926;SDS011;21132;48.308;14.274;2023-03-14T08:19:30;4.97;;;2.05;;
34926;SDS011;21132;48.308;14.274;2023-03-14T08:21:55;3.17;;;1.90;;
34926;SDS011;21132;48.308;14.274;2023-03-14T08:24:21;3.30;;;1.85;;
34926;SDS011;21132;48.308;14.274;2023-03-14T08:26:47;5.00;;;3.08;;
34926;SDS011;21132;48.308;14.274;2023-03-14T08:29:13;12.32;;;6.72;;
34926;SDS011;21132;48.308;14.274;2023-03-14T08:31:38;6.00;;;2.97;;
34926;SDS011;21132;48.308;14.274;2023-03-14T08:34:04;1.70;;;1.23;;
34926;SDS011;21132;48.308;14.274;2023-03-14T08:36:31;6.57;;;2.42;;
34926;SDS011;21132;48.308;14.274;2023-03-14T08:38:58;3.13;;;2.25;;
34926;SDS011;21132;48.308;14.274;2023-03-14T08:41:24;9.07;;;3.25;;
34926;SDS011;21132;48.308;14.274;2023-03-14T08:43:50;5.57;;;2.45;;
34926;SDS011;21132;48.308;14.274;2023-03-14T08:46:15;2.88;;;1.67;;
34926;SDS011;21132;48.308;14.274;2023-03-14T08:48:41;5.78;;;1.50;;
34926;SDS011;21132;48.308;14.274;2023-03-14T08:51:11;3.13;;;1.42;;
34926;SDS011;21132;48.308;14.274;2023-03-14T08:53:38;4.10;;;1.30;;
34926;SDS011;21132;48.308;14.274;2023-03-14T08:56:05;4.15;;;1.23;;
34926;SDS011;21132;48.308;14.274;2023-03-14T08:58:32;4.05;;;1.13;;
34926;SDS011;21132;48.308;14.274;2023-03-14T09:00:58;3.03;;;1.50;;
34926;SDS011;21132;48.308;14.274;2023-03-14T09:03:25;2.53;;;1.02;;
34926;SDS011;21132;48.308;14.274;2023-03-14T09:05:51;5.68;;;1.30;;
34926;SDS011;21132;48.308;14.274;2023-03-14T09:08:17;4.57;;;1.20;;
34926;SDS011;21132;48.308;14.274;2023-03-14T09:10:44;5.18;;;1.75;;
34926;SDS011;21132;48.308;14.274;2023-03-14T09:13:09;6.38;;;1.50;;
34926;SDS011;21132;48.308;14.274;2023-03-14T09:15:35;1.42;;;0.70;;
34926;SDS011;21132;48.308;14.274;2023-03-14T09:18:01;4.60;;;1.17;;
34926;SDS011;21132;48.308;14.274;2023-03-14T09:20:27;1.75;;;0.82;;
34926;SDS011;21132;48.308;14.274;2023-03-14T09:22:53;2.17;;;0.70;;
34926;SDS011;21132;48.308;14.274;2023-03-14T09:25:19;2.10;;;0.70;;
34926;SDS011;21132;48.308;14.274;2023-03-14T09:27:45;2.30;;;1.00;;
34926;SDS011;21132;48.308;14.274;2023-03-14T09:30:10;1.73;;;0.50;;
34926;SDS011;21132;48.308;14.274;2023-03-14T09:32:36;1.67;;;0.73;;
34926;SDS011;21132;48.308;14.274;2023-03-14T09:35:03;1.73;;;0.90;;
34926;SDS011;21132;48.308;14.274;2023-03-14T09:37:29;4.82;;;1.08;;
34926;SDS011;21132;48.308;14.274;2023-03-14T09:39:55;3.22;;;1.00;;
34926;SDS011;21132;48.308;14.274;2023-03-14T09:42:25;3.30;;;1.17;;
34926;SDS011;21132;48.308;14.274;2023-03-14T09:47:22;2.38;;;0.77;;
34926;SDS011;21132;48.308;14.274;2023-03-14T09:49:49;2.83;;;1.15;;
34926;SDS011;21132;48.308;14.274;2023-03-14T09:52:20;3.15;;;1.13;;
34926;SDS011;21132;48.308;14.274;2023-03-14T09:54:50;3.45;;;1.40;;
34926;SDS011;21132;48.308;14.274;2023-03-14T09:57:24;2.85;;;1.55;;
34926;SDS011;21132;48.308;14.274;2023-03-14T09:59:51;2.97;;;1.33;;
34926;SDS011;21132;48.308;14.274;2023-03-14T10:02:25;4.97;;;1.48;;
34926;SDS011;21132;48.308;14.274;2023-03-14T10:04:56;3.50;;;1.20;;
34926;SDS011;21132;48.308;14.274;2023-03-14T10:07:29;1.52;;;1.05;;
34926;SDS011;21132;48.308;14.274;2023-03-14T10:09:56;5.68;;;1.60;;
34926;SDS011;21132;48.308;14.274;2023-03-14T10:12:32;2.97;;;1.02;;
34926;SDS011;21132;48.308;14.274;2023-03-14T10:15:02;4.78;;;1.23;;
34926;SDS011;21132;48.308;14.274;2023-03-14T10:17:42;3.45;;;1.55;;
34926;SDS011;21132;48.308;14.274;2023-03-14T10:23:07;5.05;;;1.50;;
34926;SDS011;21132;48.308;14.274;2023-03-14T10:25:58;3.60;;;1.58;;
34926;SDS011;21132;48.308;14.274;2023-03-14T10:29:14;8.63;;;1.50;;
34926;SDS011;21132;48.308;14.274;2023-03-14T10:32:19;3.72;;;2.03;;
34926;SDS011;21132;48.308;14.274;2023-03-14T10:34:30;2.33;;;1.20;;
34926;SDS011;21132;48.308;14.274;2023-03-14T10:37:07;8.43;;;1.35;;
34926;SDS011;21132;48.308;14.274;2023-03-14T10:39:46;2.55;;;1.00;;
34926;SDS011;21132;48.308;14.274;2023-03-14T10:42:22;4.47;;;1.30;;
34926;SDS011;21132;48.308;14.274;2023-03-14T10:44:55;3.92;;;1.20;;
34926;SDS011;21132;48.308;14.274;2023-03-14T10:47:24;3.08;;;1.10;;
34926;SDS011;21132;48.308;14.274;2023-03-14T10:49:53;5.15;;;0.95;;
34926;SDS011;21132;48.308;14.274;2023-03-14T10:52:22;3.70;;;1.13;;
34926;SDS011;21132;48.308;14.274;2023-03-14T10:55:00;2.35;;;0.88;;
34926;SDS011;21132;48.308;14.274;2023-03-14T10:57:28;4.32;;;0.82;;
34926;SDS011;21132;48.308;14.274;2023-03-14T10:59:55;5.30;;;1.05;;
34926;SDS011;21132;48.308;14.274;2023-03-14T11:07:46;2.05;;;0.80;;
34926;SDS011;21132;48.308;14.274;2023-03-14T11:10:18;4.60;;;1.05;;
34926;SDS011;21132;48.308;14.274;2023-03-14T11:21:21;2.17;;;1.10;;
34926;SDS011;21132;48.308;14.274;2023-03-14T11:35:04;3.67;;;0.60;;
34926;SDS011;21132;48.308;14.274;2023-03-14T11:37:52;1.50;;;0.50;;
34926;SDS011;21132;48.308;14.274;2023-03-14T11:40:37;1.63;;;0.57;;
34926;SDS011;21132;48.308;14.274;2023-03-14T11:46:14;3.92;;;1.05;;
34926;SDS011;21132;48.308;14.274;2023-03-14T11:48:45;1.17;;;0.55;;
34926;SDS011;21132;48.308;14.274;2023-03-14T11:51:24;0.50;;;0.40;;
34926;SDS011;21132;48.308;14.274;2023-03-14T11:54:00;0.77;;;0.63;;
34926;SDS011;21132;48.308;14.274;2023-03-14T11:56:29;1.42;;;0.57;;
34926;SDS011;21132;48.308;14.274;2023-03-14T11:59:07;2.45;;;0.77;;
34926;SDS011;21132;48.308;14.274;2023-03-14T12:09:43;1.20;;;0.60;;
34926;SDS011;21132;48.308;14.274;2023-03-14T12:12:12;0.80;;;0.35;;
34926;SDS011;21132;48.308;14.274;2023-03-14T12:14:45;1.95;;;0.50;;
34926;SDS011;21132;48.308;14.274;2023-03-14T12:17:19;0.40;;;0.40;;
34926;SDS011;21132;48.308;14.274;2023-03-14T12:19:47;0.52;;;0.40;;
34926;SDS011;21132;48.308;14.274;2023-03-14T12:22:35;0.65;;;0.40;;
34926;SDS011;21132;48.308;14.274;2023-03-14T12:27:45;1.25;;;0.60;;
34926;SDS011;21132;48.308;14.274;2023-03-14T12:30:17;1.83;;;0.88;;
34926;SDS011;21132;48.308;14.274;2023-03-14T12:38:03;1.05;;;0.50;;
34926;SDS011;21132;48.308;14.274;2023-03-14T12:40:36;0.52;;;0.43;;
34926;SDS011;21132;48.308;14.274;2023-03-14T12:48:43;3.25;;;0.60;;
34926;SDS011;21132;48.308;14.274;2023-03-14T12:51:54;0.45;;;0.40;;
34926;SDS011;21132;48.308;14.274;2023-03-14T12:57:47;1.40;;;0.68;;
34926;SDS011;21132;48.308;14.274;2023-03-14T13:00:24;3.00;;;0.55;;
34926;SDS011;21132;48.308;14.274;2023-03-14T13:03:40;0.40;;;0.40;;
34926;SDS011;21132;48.308;14.274;2023-03-14T13:06:08;1.08;;;0.50;;
34926;SDS011;21132;48.308;14.274;2023-03-14T13:08:42;1.00;;;0.57;;
34926;SDS011;21132;48.308;14.274;2023-03-14T13:13:55;3.60;;;0.40;;
34926;SDS011;21132;48.308;14.274;2023-03-14T13:16:23;0.82;;;0.47;;
34926;SDS011;21132;48.308;14.274;2023-03-14T13:21:56;1.27;;;0.60;;
34926;SDS011;21132;48.308;14.274;2023-03-14T13:24:27;2.55;;;0.80;;
34926;SDS011;21132;48.308;14.274;2023-03-14T13:26:54;1.67;;;0.80;;
34926;SDS011;21132;48.308;14.274;2023-03-14T13:29:22;2.35;;;0.90;;
34926;SDS011;21132;48.308;14.274;2023-03-14T13:31:50;1.05;;;0.80;;
34926;SDS011;21132;48.308;14.274;2023-03-14T13:34:30;1.38;;;0.70;;
34926;SDS011;21132;48.308;14.274;2023-03-14T13:36:57;6.50;;;1.98;;
34926;SDS011;21132;48.308;14.274;2023-03-14T13:39:24;2.75;;;1.58;;
34926;SDS011;21132;48.308;14.274;2023-03-14T13:41:51;5.43;;;2.10;;
34926;SDS011;21132;48.308;14.274;2023-03-14T13:44:25;3.67;;;1.20;;
34926;SDS011;21132;48.308;14.274;2023-03-14T13:46:58;5.68;;;0.90;;
34926;SDS011;21132;48.308;14.274;2023-03-14T13:49:26;1.52;;;0.85;;
34926;SDS011;21132;48.308;14.274;2023-03-14T13:51:56;1.48;;;0.90;;
34926;SDS011;21132;48.308;14.274;2023-03-14T13:54:22;4.45;;;0.70;;
34926;SDS011;21132;48.308;14.274;2023-03-14T13:56:58;1.52;;;0.70;;
34926;SDS011;21132;48.308;14.274;2023-03-14T13:59:29;1.25;;;0.60;;
34926;SDS011;21132;48.308;14.274;2023-03-14T14:01:57;1.77;;;0.90;;
34926;SDS011;21132;48.308;14.274;2023-03-14T14:04:26;1.63;;;0.98;;
34926;SDS011;21132;48.308;14.274;2023-03-14T14:06:55;1.13;;;0.70;;
34926;SDS011;21132;48.308;14.274;2023-03-14T14:09:27;2.63;;;0.90;;
34926;SDS011;21132;48.308;14.274;2023-03-14T14:12:05;5.00;;;2.58;;
34926;SDS011;21132;48.308;14.274;2023-03-14T14:14:37;1.77;;;1.30;;
34926;SDS011;21132;48.308;14.274;2023-03-14T14:17:08;1.65;;;1.05;;
34926;SDS011;21132;48.308;14.274;2023-03-14T14:19:37;1.90;;;1.45;;
34926;SDS011;21132;48.308;14.274;2023-03-14T14:22:04;3.08;;;1.00;;
34926;SDS011;21132;48.308;14.274;2023-03-14T14:24:32;1.65;;;0.70;;
34926;SDS011;21132;48.308;14.274;2023-03-14T14:26:59;3.38;;;0.80;;
34926;SDS011;21132;48.308;14.274;2023-03-14T14:29:33;1.60;;;0.88;;
34926;SDS011;21132;48.308;14.274;2023-03-14T14:32:19;7.40;;;0.70;;
34926;SDS011;21132;48.308;14.274;2023-03-14T14:34:45;1.25;;;0.70;;
34926;SDS011;21132;48.308;14.274;2023-03-14T14:37:21;2.47;;;0.73;;
34926;SDS011;21132;48.308;14.274;2023-03-14T14:39:59;1.48;;;0.50;;
34926;SDS011;21132;48.308;14.274;2023-03-14T14:42:31;0.60;;;0.60;;
34926;SDS011;21132;48.308;14.274;2023-03-14T14:44:57;0.98;;;0.73;;
34926;SDS011;21132;48.308;14.274;2023-03-14T14:47:25;0.73;;;0.50;;
34926;SDS011;21132;48.308;14.274;2023-03-14T14:49:54;1.73;;;0.60;;
34926;SDS011;21132;48.308;14.274;2023-03-14T14:52:43;1.38;;;0.68;;
34926;SDS011;21132;48.308;14.274;2023-03-14T14:55:19;3.60;;;0.68;;
34926;SDS011;21132;48.308;14.274;2023-03-14T14:57:52;3.42;;;0.80;;
34926;SDS011;21132;48.308;14.274;2023-03-14T15:00:20;0.85;;;0.43;;
34926;SDS011;21132;48.308;14.274;2023-03-14T15:02:48;1.42;;;0.60;;
34926;SDS011;21132;48.308;14.274;2023-03-14T15:05:21;2.63;;;0.98;;
34926;SDS011;21132;48.308;14.274;2023-03-14T15:07:52;0.77;;;0.63;;
34926;SDS011;21132;48.308;14.274;2023-03-14T15:10:19;3.15;;;1.60;;
34926;SDS011;21132;48.308;14.274;2023-03-14T15:12:50;1.48;;;0.75;;
34926;SDS011;21132;48.308;14.274;2023-03-14T15:15:16;0.95;;;0.73;;
34926;SDS011;21132;48.308;14.274;2023-03-14T15:17:42;0.73;;;0.50;;
34926;SDS011;21132;48.308;14.274;2023-03-14T15:20:12;1.02;;;0.60;;
34926;SDS011;21132;48.308;14.274;2023-03-14T15:22:40;1.25;;;0.77;;
34926;SDS011;21132;48.308;14.274;2023-03-14T15:25:06;1.05;;;0.80;;
34926;SDS011;21132;48.308;14.274;2023-03-14T15:27:33;1.50;;;1.00;;
34926;SDS011;21132;48.308;14.274;2023-03-14T15:29:59;2.15;;;0.90;;
34926;SDS011;21132;48.308;14.274;2023-03-14T15:32:25;3.40;;;0.90;;
34926;SDS011;21132;48.308;14.274;2023-03-14T15:34:55;2.20;;;1.13;;
34926;SDS011;21132;48.308;14.274;2023-03-14T15:37:21;2.65;;;1.00;;
34926;SDS011;21132;48.308;14.274;2023-03-14T15:39:47;2.90;;;0.68;;
34926;SDS011;21132;48.308;14.274;2023-03-14T15:42:14;1.35;;;1.08;;
34926;SDS011;21132;48.308;14.274;2023-03-14T15:44:40;1.27;;;1.10;;
34926;SDS011;21132;48.308;14.274;2023-03-14T15:47:06;1.17;;;0.85;;
34926;SDS011;21132;48.308;14.274;2023-03-14T15:49:35;3.15;;;1.50;;
34926;SDS011;21132;48.308;14.274;2023-03-14T15:52:01;4.07;;;1.77;;
34926;SDS011;21132;48.308;14.274;2023-03-14T15:54:27;5.97;;;2.00;;